This demonstration page uses our WeatherBlox Daily Observations layout. Learn more.

36.17497, -115.13722

Hourly Observations for July 11, 2019

Temp ( °F °C ) Dew Point ( °F °C ) Humidity (%) Winds ( mph kmh ) Pressure ( in mb ) Visibility ( mi km ) Precip ( " mm )
12:53 am 00:53 Clear 88 31.1 38 3.3 17 17 NNW 6 9 29.88 1012 10 16.09344 0 0
1:53 am 01:53 Clear 86 30 37 2.8 18 18 Calm 29.88 1012 10 16.09344 0 0
2:53 am 02:53 Clear 82 27.8 37 2.8 20 20 NNW 5 7 29.88 1012 10 16.09344 0 0
3:53 am 03:53 Clear 82 27.8 37 2.8 20 20 NNW 5 7 29.88 1012 10 16.09344 0 0
4:53 am 04:53 Clear 81 27.2 39 3.9 22 22 NNW 5 7 29.91 1013 10 16.09344 0 0
5:53 am 05:53 Sunny 81 27.2 38 3.3 21 21 Calm 29.91 1013 10 16.09344 0 0
6:53 am 06:53 Sunny 84 28.9 41 5 22 22 Calm 29.94 1014 10 16.09344 0 0
7:53 am 07:53 Sunny 89 31.7 39 3.9 17 17 Calm 29.94 1014 10 16.09344 0 0
8:53 am 08:53 Sunny 92 33.3 38 3.3 15 15 E 5 7 29.94 1014 10 16.09344 0 0
9:53 am 09:53 Sunny 95 35 36 2.2 13 13 SE 5 7 29.94 1014 10 16.09344 0 0
10:53 am 10:53 Sunny 98 36.7 37 2.8 12 12 SE 6 9 29.91 1013 10 16.09344 0 0
11:53 am 11:53 Sunny 100 37.8 35 1.7 10 10 VRB 7 11 29.91 1013 10 16.09344 0 0
12:53 pm 12:53 Sunny 104 40 33 0.6 8 8 SE 14 22 29.88 1012 10 16.09344 0 0
1:53 pm 13:53 Sunny 106 41.1 27 -2.8 6 6 S 16 26 29.85 1011 10 16.09344 0 0
2:53 pm 14:53 Sunny 106 41.1 28 -2.2 6 6 WSW 12 19 29.83 1010 10 16.09344 0 0
3:53 pm 15:53 Sunny 107 41.7 26 -3.3 6 6 WSW 13 20 29.8 1009 10 16.09344 0 0
4:34 pm 16:34 Sunny 108 42.2 24 -4.4 5 5 WSW 16 26 29.62 1003 10 16.09344 0 0
4:53 pm 16:53 Sunny 107 41.7 22 -5.6 5 5 SSW 14 22 29.8 1009 10 16.09344 0 0
5:41 pm 17:41 Sunny 106 41.1 21 -6.1 5 5 WSW 13 20 29.59 1002 10 16.09344 0 0
5:53 pm 17:53 Sunny 106 41.1 21 -6.1 5 5 W 16 26 29.8 1009 10 16.09344 0 0
6:53 pm 18:53 Sunny 105 40.6 25 -3.9 6 6 SW 13 20 29.8 1009 10 16.09344 0 0
7:53 pm 19:53 Sunny 102 38.9 28 -2.2 7 7 WSW 13 20 29.8 1009 10 16.09344 0 0
8:53 pm 20:53 Clear 100 37.8 30 -1.1 8 8 SW 7 11 29.8 1009 10 16.09344 0 0
9:53 pm 21:53 Clear 98 36.7 29 -1.7 9 9 SW 8 13 29.8 1009 10 16.09344 0 0
10:53 pm 22:53 Clear 96 35.6 31 -0.6 10 10 SW 6 9 29.8 1009 10 16.09344 0 0
11:53 pm 23:53 Clear 96 35.6 32 0 10 10 VRB 3 6 29.8 1009 10 16.09344 0 0

Powered by AerisWeather